createdAt,value
2023-05-18T00:02:10.849Z,11.40
2023-05-18T00:04:38.716Z,11.20
2023-05-18T00:07:07.086Z,11.02
2023-05-18T00:09:35.942Z,10.95
2023-05-18T00:12:04.670Z,11.18
2023-05-18T00:14:32.284Z,11.57
2023-05-18T00:17:01.904Z,12.23
2023-05-18T00:19:30.251Z,12.13
2023-05-18T00:21:58.095Z,12.65
2023-05-18T00:24:25.770Z,12.68
2023-05-18T00:26:53.319Z,13.00
2023-05-18T00:29:21.158Z,13.02
2023-05-18T00:31:48.642Z,13.32
2023-05-18T00:34:17.028Z,12.60
2023-05-18T00:36:44.634Z,13.27
2023-05-18T00:39:12.447Z,12.25
2023-05-18T00:41:40.476Z,13.20
2023-05-18T00:44:07.953Z,12.00
2023-05-18T00:46:37.142Z,11.88
2023-05-18T00:49:05.147Z,11.73
2023-05-18T00:51:33.385Z,11.95
2023-05-18T00:54:03.589Z,12.02
2023-05-18T00:56:34.327Z,11.68
2023-05-18T00:59:03.453Z,12.10
2023-05-18T01:01:34.740Z,11.38
2023-05-18T01:04:03.571Z,12.05
2023-05-18T01:06:35.778Z,12.27
2023-05-18T01:09:05.438Z,12.60
2023-05-18T01:11:35.809Z,12.55
2023-05-18T01:14:06.259Z,13.60
2023-05-18T01:16:40.633Z,12.93
2023-05-18T01:19:19.226Z,13.10
2023-05-18T01:21:58.377Z,13.70
2023-05-18T01:24:36.427Z,13.35
2023-05-18T01:27:07.765Z,13.13
2023-05-18T01:29:36.213Z,13.82
2023-05-18T01:32:07.723Z,13.93
2023-05-18T01:34:35.179Z,12.77
2023-05-18T01:37:02.723Z,11.80
2023-05-18T01:39:30.335Z,12.30
2023-05-18T01:42:01.128Z,12.55
2023-05-18T01:44:33.078Z,13.07
2023-05-18T01:47:17.406Z,13.38
2023-05-18T01:50:03.215Z,13.13
2023-05-18T01:52:30.716Z,13.20
2023-05-18T01:54:59.338Z,13.70
2023-05-18T01:57:29.867Z,13.45
2023-05-18T02:00:00.027Z,15.07
2023-05-18T02:02:28.257Z,14.85
2023-05-18T02:04:56.280Z,14.18
2023-05-18T02:07:23.812Z,14.70
2023-05-18T02:09:51.341Z,13.95
2023-05-18T02:12:18.859Z,14.25
2023-05-18T02:14:46.365Z,13.73
2023-05-18T02:17:13.864Z,13.85
2023-05-18T02:19:41.466Z,14.13
2023-05-18T02:22:09.024Z,13.93
2023-05-18T02:24:37.071Z,13.88
2023-05-18T02:27:06.049Z,14.30
2023-05-18T02:29:33.561Z,14.07
2023-05-18T02:32:01.126Z,14.77
2023-05-18T02:34:32.089Z,14.10
2023-05-18T02:37:04.105Z,14.60
2023-05-18T02:39:31.859Z,14.75
2023-05-18T02:41:59.367Z,13.85
2023-05-18T02:44:28.670Z,14.90
2023-05-18T02:46:56.127Z,13.70
2023-05-18T02:49:23.657Z,14.13
2023-05-18T02:51:52.200Z,13.55
2023-05-18T02:54:19.767Z,13.80
2023-05-18T02:56:47.229Z,13.50
2023-05-18T02:59:25.627Z,12.82
2023-05-18T03:01:53.282Z,12.60
2023-05-18T03:04:21.987Z,12.52
2023-05-18T03:06:53.406Z,12.77
2023-05-18T03:09:23.109Z,12.82
2023-05-18T03:11:53.656Z,11.85
2023-05-18T03:14:21.456Z,11.63
2023-05-18T03:16:53.806Z,11.68
2023-05-18T03:19:22.724Z,11.73
2023-05-18T03:21:50.836Z,11.52
2023-05-18T03:24:18.362Z,12.13
2023-05-18T03:26:48.924Z,11.82
2023-05-18T03:29:16.545Z,11.77
2023-05-18T03:31:44.496Z,11.98
2023-05-18T03:34:13.813Z,11.60
2023-05-18T03:36:42.659Z,11.48
2023-05-18T03:39:10.978Z,11.30
2023-05-18T03:41:38.621Z,11.77
2023-05-18T03:44:06.156Z,12.15
2023-05-18T03:46:34.157Z,12.75
2023-05-18T03:49:03.413Z,12.50
2023-05-18T03:51:36.948Z,11.88
2023-05-18T03:54:04.910Z,12.70
2023-05-18T03:56:32.409Z,11.73
2023-05-18T03:59:00.262Z,12.35
2023-05-18T04:01:30.285Z,11.38
2023-05-18T04:03:58.155Z,10.38
2023-05-18T04:06:26.902Z,10.68
2023-05-18T04:08:55.007Z,11.02
2023-05-18T04:11:22.691Z,9.13
2023-05-18T04:13:50.929Z,9.13
2023-05-18T04:16:19.626Z,8.27
2023-05-18T04:18:47.208Z,8.05
2023-05-18T04:21:16.099Z,8.50
2023-05-18T04:23:47.260Z,8.60
2023-05-18T04:26:19.972Z,8.85
2023-05-18T04:28:47.703Z,8.68
2023-05-18T04:31:17.809Z,8.73
2023-05-18T04:33:47.369Z,8.50
2023-05-18T04:36:15.146Z,9.05
2023-05-18T04:38:42.959Z,9.10
2023-05-18T04:41:10.499Z,8.75
2023-05-18T04:43:38.602Z,8.60
2023-05-18T04:46:07.312Z,9.57
2023-05-18T04:48:36.361Z,9.73
2023-05-18T04:51:04.966Z,11.18
2023-05-18T04:53:38.795Z,9.85
2023-05-18T04:56:06.542Z,9.27
2023-05-18T04:58:35.704Z,9.48
2023-05-18T05:01:03.319Z,9.43
2023-05-18T05:03:30.965Z,10.05
2023-05-18T05:05:58.420Z,10.25
2023-05-18T05:08:25.902Z,9.40
2023-05-18T05:10:53.385Z,9.98
2023-05-18T05:13:21.025Z,9.77
2023-05-18T05:15:48.547Z,9.93
2023-05-18T05:18:16.003Z,9.77
2023-05-18T05:20:43.509Z,10.77
2023-05-18T05:23:11.199Z,10.65
2023-05-18T05:25:41.762Z,10.30
2023-05-18T05:28:09.257Z,10.50
2023-05-18T05:30:37.293Z,11.25
2023-05-18T05:33:04.931Z,9.82
2023-05-18T05:35:33.810Z,10.95
2023-05-18T05:38:01.875Z,11.00
2023-05-18T05:40:31.326Z,9.85
2023-05-18T05:42:59.226Z,10.05
2023-05-18T05:45:28.775Z,8.88
2023-05-18T05:48:00.710Z,9.70
2023-05-18T05:50:28.278Z,10.43
2023-05-18T05:53:00.025Z,10.68
2023-05-18T05:55:29.188Z,10.30
2023-05-18T05:57:56.822Z,10.57
2023-05-18T06:00:25.369Z,9.00
2023-05-18T06:02:56.754Z,9.45
2023-05-18T06:05:34.976Z,9.98
2023-05-18T06:08:03.309Z,8.93
2023-05-18T06:10:31.275Z,9.13
2023-05-18T06:12:59.145Z,9.45
2023-05-18T06:15:36.289Z,9.57
2023-05-18T06:18:03.866Z,9.40
2023-05-18T06:20:31.368Z,10.80
2023-05-18T06:22:58.855Z,8.05
2023-05-18T06:25:53.339Z,8.65
2023-05-18T06:28:38.144Z,7.93
2023-05-18T06:31:35.241Z,8.48
2023-05-18T06:34:18.048Z,7.97
2023-05-18T06:36:46.591Z,7.70
2023-05-18T06:39:14.367Z,8.30
2023-05-18T06:41:41.986Z,7.70
2023-05-18T06:44:09.429Z,7.75
2023-05-18T06:46:37.605Z,9.10
2023-05-18T06:49:22.043Z,7.83
2023-05-18T06:51:49.602Z,7.85
2023-05-18T06:54:17.307Z,6.88
2023-05-18T06:56:44.800Z,6.93
2023-05-18T06:59:12.221Z,7.20
2023-05-18T07:01:39.809Z,7.80
2023-05-18T07:04:09.616Z,7.20
2023-05-18T07:06:37.252Z,6.43
2023-05-18T07:09:05.044Z,6.40
2023-05-18T07:11:32.586Z,6.10
2023-05-18T07:13:59.978Z,6.22
2023-05-18T07:16:28.280Z,5.57
2023-05-18T07:18:55.821Z,5.25
2023-05-18T07:21:23.448Z,6.03
2023-05-18T07:23:52.668Z,6.03
2023-05-18T07:26:22.333Z,4.40
2023-05-18T07:28:51.354Z,4.95
2023-05-18T07:31:21.281Z,5.05
2023-05-18T07:33:49.066Z,5.22
2023-05-18T07:36:16.938Z,5.05
2023-05-18T07:38:44.442Z,4.78
2023-05-18T07:41:11.940Z,5.18
2023-05-18T07:43:39.452Z,4.75
2023-05-18T07:46:06.921Z,5.40
2023-05-18T07:48:34.456Z,5.13
2023-05-18T07:51:01.925Z,4.82
2023-05-18T07:53:29.520Z,5.28
2023-05-18T07:55:57.020Z,6.07
2023-05-18T07:58:24.446Z,6.20
2023-05-18T08:00:52.137Z,6.15
2023-05-18T08:03:19.684Z,5.43
2023-05-18T08:05:47.140Z,5.72
2023-05-18T08:08:18.771Z,5.22
2023-05-18T08:10:46.392Z,5.68
2023-05-18T08:13:13.872Z,5.90
2023-05-18T08:15:41.376Z,6.93
2023-05-18T08:18:08.839Z,5.97
2023-05-18T08:20:36.338Z,6.93
2023-05-18T08:23:04.037Z,7.45
2023-05-18T08:25:31.747Z,7.03
2023-05-18T08:27:59.366Z,7.57
2023-05-18T08:30:27.244Z,7.85
2023-05-18T08:32:54.874Z,7.70
2023-05-18T08:35:22.389Z,7.85
2023-05-18T08:37:50.624Z,8.30
2023-05-18T08:40:18.146Z,8.13
2023-05-18T08:42:50.660Z,7.90
2023-05-18T08:45:37.465Z,8.00
2023-05-18T08:48:05.972Z,7.93
2023-05-18T08:50:34.167Z,8.02
2023-05-18T08:53:03.069Z,8.80
2023-05-18T08:55:34.713Z,8.80
2023-05-18T08:58:03.059Z,8.60
2023-05-18T09:00:31.114Z,8.35
2023-05-18T09:02:59.097Z,8.88
2023-05-18T09:05:26.879Z,9.85
2023-05-18T09:07:55.706Z,8.57
2023-05-18T09:10:23.728Z,8.77
2023-05-18T09:12:52.108Z,9.30
2023-05-18T09:15:19.623Z,8.93
2023-05-18T09:17:47.181Z,8.68
2023-05-18T09:20:14.799Z,9.30
2023-05-18T09:22:42.248Z,9.32
2023-05-18T09:25:10.898Z,9.05
2023-05-18T09:27:38.633Z,8.50
2023-05-18T09:30:11.320Z,9.63
2023-05-18T09:32:39.142Z,9.88
2023-05-18T09:35:07.754Z,9.52
2023-05-18T09:37:36.214Z,8.98
2023-05-18T09:40:07.724Z,8.65
2023-05-18T09:42:42.460Z,8.13
2023-05-18T09:47:37.307Z,6.90
2023-05-18T09:50:04.899Z,6.03
2023-05-18T09:52:32.332Z,6.32
2023-05-18T09:55:04.617Z,6.47
2023-05-18T09:57:32.147Z,6.63
2023-05-18T10:00:10.514Z,7.60
2023-05-18T10:02:42.116Z,6.05
2023-05-18T10:05:36.073Z,6.40
2023-05-18T10:08:04.036Z,6.03
2023-05-18T10:10:31.781Z,5.82
2023-05-18T10:12:59.695Z,4.78
2023-05-18T10:15:27.151Z,4.63
2023-05-18T10:17:56.595Z,3.38
2023-05-18T10:20:26.924Z,3.22
2023-05-18T10:22:56.149Z,3.55
2023-05-18T10:25:25.232Z,3.78
2023-05-18T10:28:02.778Z,3.60
2023-05-18T10:30:30.917Z,3.80
2023-05-18T10:32:58.916Z,3.55
2023-05-18T10:35:28.466Z,4.50
2023-05-18T10:37:57.657Z,3.88
2023-05-18T10:40:25.490Z,4.05
2023-05-18T10:42:54.360Z,3.83
2023-05-18T10:45:21.979Z,4.05
2023-05-18T10:47:54.349Z,3.80
2023-05-18T10:50:24.133Z,4.28
2023-05-18T10:52:52.739Z,4.60
2023-05-18T10:55:20.910Z,3.90
2023-05-18T10:57:52.405Z,3.97
2023-05-18T11:00:20.576Z,3.50
2023-05-18T11:02:48.410Z,4.00
2023-05-18T11:05:16.088Z,3.47
2023-05-18T11:07:46.410Z,3.70
2023-05-18T11:10:14.944Z,3.75
2023-05-18T11:12:43.089Z,3.80
2023-05-18T11:15:10.800Z,3.25
2023-05-18T11:17:38.292Z,3.38
2023-05-18T11:20:09.444Z,3.53
2023-05-18T11:22:43.135Z,3.42
2023-05-18T11:25:10.686Z,3.40
2023-05-18T11:27:38.650Z,3.55
2023-05-18T11:30:26.235Z,3.33
2023-05-18T11:32:53.990Z,3.90
2023-05-18T11:35:24.500Z,3.47
2023-05-18T11:37:52.052Z,3.28
2023-05-18T11:40:37.857Z,2.65
2023-05-18T11:43:05.728Z,2.60
2023-05-18T11:45:34.477Z,2.72
2023-05-18T11:48:03.637Z,2.58
2023-05-18T11:50:31.529Z,3.30
2023-05-18T11:52:59.664Z,2.85
2023-05-18T11:55:38.089Z,3.10
2023-05-18T11:58:08.466Z,2.95
2023-05-18T12:00:36.974Z,3.00
2023-05-18T12:03:04.953Z,3.30
2023-05-18T12:05:32.650Z,2.97
2023-05-18T12:08:00.352Z,3.30
2023-05-18T12:10:27.859Z,3.17
2023-05-18T12:12:55.798Z,3.20
2023-05-18T12:15:24.110Z,3.20
2023-05-18T12:17:52.347Z,3.15
2023-05-18T12:20:21.394Z,3.05
2023-05-18T12:22:53.817Z,3.05
2023-05-18T12:25:23.369Z,2.90
2023-05-18T12:27:51.867Z,2.85
2023-05-18T12:30:20.372Z,2.95
2023-05-18T12:32:47.983Z,2.50
2023-05-18T12:35:15.734Z,2.60
2023-05-18T12:37:46.721Z,2.88
2023-05-18T12:40:18.297Z,2.60
2023-05-18T12:43:04.202Z,2.80
2023-05-18T12:45:33.572Z,3.10
2023-05-18T12:48:08.531Z,3.20
2023-05-18T12:50:37.321Z,2.67
2023-05-18T12:53:05.182Z,2.80
2023-05-18T12:55:33.578Z,2.45
2023-05-18T12:58:08.594Z,3.35
2023-05-18T13:00:36.911Z,2.83
2023-05-18T13:03:13.764Z,2.05
2023-05-18T13:05:47.088Z,2.47
2023-05-18T13:08:16.439Z,2.63
2023-05-18T13:10:45.192Z,2.88
2023-05-18T13:13:16.359Z,2.70
2023-05-18T13:15:43.858Z,2.40
2023-05-18T13:18:12.424Z,2.47
2023-05-18T13:20:41.293Z,2.72
2023-05-18T13:23:12.915Z,2.20
2023-05-18T13:25:40.931Z,2.58
2023-05-18T13:28:10.559Z,2.17
2023-05-18T13:30:38.718Z,2.53
2023-05-18T13:33:08.363Z,2.42
2023-05-18T13:35:40.362Z,2.60
2023-05-18T13:38:07.842Z,2.30
2023-05-18T13:40:36.095Z,2.30
2023-05-18T13:43:03.650Z,2.80
2023-05-18T13:45:31.364Z,2.40
2023-05-18T13:47:59.389Z,2.38
2023-05-18T13:50:26.983Z,2.53
2023-05-18T13:52:54.724Z,2.70
2023-05-18T13:55:22.901Z,2.20
2023-05-18T13:57:50.409Z,2.90
2023-05-18T14:00:18.035Z,2.63
2023-05-18T14:02:46.276Z,3.03
2023-05-18T14:05:14.424Z,2.78
2023-05-18T14:07:42.714Z,2.60
2023-05-18T14:10:11.150Z,2.30
2023-05-18T14:12:38.851Z,2.40
2023-05-18T14:15:06.556Z,2.63
2023-05-18T14:17:34.985Z,2.22
2023-05-18T14:20:02.876Z,2.85
2023-05-18T14:22:30.695Z,2.20
2023-05-18T14:24:58.099Z,2.20
2023-05-18T14:27:25.615Z,2.22
2023-05-18T14:29:53.030Z,2.20
2023-05-18T14:32:23.628Z,2.13
2023-05-18T14:34:52.162Z,2.30
2023-05-18T14:37:20.013Z,2.40
2023-05-18T14:39:47.577Z,2.25
2023-05-18T14:42:16.286Z,2.53
2023-05-18T14:44:43.819Z,2.65
2023-05-18T14:47:11.349Z,2.10
2023-05-18T14:49:39.122Z,2.50
2023-05-18T14:52:06.709Z,2.10
2023-05-18T14:54:34.232Z,2.03
2023-05-18T14:57:01.662Z,2.05
2023-05-18T14:59:29.155Z,1.90
2023-05-18T15:01:56.638Z,2.10
2023-05-18T15:04:25.351Z,2.35
2023-05-18T15:06:52.818Z,2.13
2023-05-18T15:09:20.479Z,2.00
2023-05-18T15:11:47.986Z,2.00
2023-05-18T15:14:15.631Z,2.25
2023-05-18T15:16:43.137Z,3.20
2023-05-18T15:19:10.997Z,3.10
2023-05-18T15:21:38.405Z,2.60
2023-05-18T15:24:06.310Z,2.70
2023-05-18T15:26:33.847Z,2.55
2023-05-18T15:29:01.309Z,2.78
2023-05-18T15:31:28.867Z,2.22
2023-05-18T15:33:56.311Z,2.45
2023-05-18T15:36:24.658Z,2.38
2023-05-18T15:38:52.058Z,2.30
2023-05-18T15:41:19.582Z,2.50
2023-05-18T15:43:47.001Z,2.67
2023-05-18T15:46:14.490Z,2.72
2023-05-18T15:48:45.040Z,3.10
2023-05-18T15:51:12.598Z,3.28
2023-05-18T15:53:40.204Z,3.10
2023-05-18T15:56:07.739Z,2.90
2023-05-18T15:58:35.175Z,3.63
2023-05-18T16:01:02.602Z,3.60
2023-05-18T16:03:30.291Z,3.80
2023-05-18T16:05:58.064Z,3.03
2023-05-18T16:08:25.615Z,3.05
2023-05-18T16:10:53.173Z,2.72
2023-05-18T16:13:22.762Z,2.60
2023-05-18T16:15:50.307Z,3.00
2023-05-18T16:18:17.757Z,2.72
2023-05-18T16:20:45.259Z,3.08
2023-05-18T16:23:12.739Z,3.28
2023-05-18T16:25:40.250Z,3.10
2023-05-18T16:28:07.734Z,3.30
2023-05-18T16:30:35.159Z,3.60
2023-05-18T16:33:02.702Z,3.85
2023-05-18T16:35:31.897Z,3.70
2023-05-18T16:37:59.576Z,3.30
2023-05-18T16:40:27.007Z,3.90
2023-05-18T16:42:54.558Z,3.75
2023-05-18T16:45:22.379Z,3.90
2023-05-18T16:47:50.385Z,3.35
2023-05-18T16:50:18.316Z,3.75
2023-05-18T16:52:45.951Z,3.40
2023-05-18T16:55:13.396Z,3.40
2023-05-18T16:57:43.266Z,3.53
2023-05-18T17:00:11.562Z,3.85
2023-05-18T17:02:40.121Z,3.72
2023-05-18T17:05:08.638Z,3.38
2023-05-18T17:07:36.780Z,3.65
2023-05-18T17:10:07.516Z,3.20
2023-05-18T17:12:36.808Z,3.30
2023-05-18T17:15:04.351Z,3.65
2023-05-18T17:17:31.910Z,3.40
2023-05-18T17:19:59.412Z,3.58
2023-05-18T17:22:26.914Z,3.70
2023-05-18T17:24:54.307Z,3.97
2023-05-18T17:27:22.784Z,3.97
2023-05-18T17:29:50.235Z,4.35
2023-05-18T17:32:17.657Z,4.05
2023-05-18T17:34:45.145Z,4.10
2023-05-18T17:37:13.079Z,4.25
2023-05-18T17:39:40.702Z,4.10
2023-05-18T17:42:08.173Z,5.13
2023-05-18T17:44:35.755Z,4.70
2023-05-18T17:47:03.325Z,5.00
2023-05-18T17:49:32.497Z,5.75
2023-05-18T17:52:00.138Z,5.38
2023-05-18T17:54:27.711Z,5.15
2023-05-18T17:56:56.659Z,5.45
2023-05-18T17:59:24.128Z,6.10
2023-05-18T18:01:51.631Z,6.00
2023-05-18T18:04:19.228Z,6.13
2023-05-18T18:06:46.681Z,6.22
2023-05-18T18:09:14.118Z,6.05
2023-05-18T18:11:41.649Z,6.25
2023-05-18T18:14:09.062Z,6.65
2023-05-18T18:16:36.720Z,6.40
2023-05-18T18:19:05.172Z,7.10
2023-05-18T18:21:32.665Z,6.75
2023-05-18T18:24:01.476Z,7.18
2023-05-18T18:26:30.030Z,7.95
2023-05-18T18:28:57.518Z,7.70
2023-05-18T18:31:25.028Z,7.93
2023-05-18T18:33:52.498Z,8.40
2023-05-18T18:36:19.970Z,7.95
2023-05-18T18:38:47.619Z,7.88
2023-05-18T18:41:17.377Z,8.07
2023-05-18T18:43:45.706Z,7.57
2023-05-18T18:46:13.270Z,6.32
2023-05-18T18:48:40.880Z,6.43
2023-05-18T18:51:08.323Z,5.78
2023-05-18T18:53:35.809Z,6.97
2023-05-18T18:56:03.336Z,6.75
2023-05-18T18:58:30.819Z,5.45
2023-05-18T19:00:58.231Z,6.55
2023-05-18T19:03:26.268Z,6.13
2023-05-18T19:05:53.953Z,6.38
2023-05-18T19:08:21.642Z,6.22
2023-05-18T19:10:49.041Z,5.88
2023-05-18T19:13:16.607Z,7.22
2023-05-18T19:15:44.204Z,6.65
2023-05-18T19:18:11.642Z,6.40
2023-05-18T19:20:39.126Z,5.70
2023-05-18T19:23:06.622Z,6.20
2023-05-18T19:25:34.266Z,6.13
2023-05-18T19:28:02.273Z,6.07
2023-05-18T19:30:29.732Z,5.47
2023-05-18T19:32:57.242Z,5.50
2023-05-18T19:35:25.007Z,5.15
2023-05-18T19:37:53.151Z,5.70
2023-05-18T19:40:22.714Z,5.70
2023-05-18T19:42:50.358Z,5.70
2023-05-18T19:45:17.978Z,5.75
2023-05-18T19:47:45.475Z,6.13
2023-05-18T19:50:13.285Z,6.40
2023-05-18T19:52:41.331Z,6.05
2023-05-18T19:55:08.777Z,6.22
2023-05-18T19:57:36.275Z,5.57
2023-05-18T20:00:04.780Z,6.15
2023-05-18T20:02:39.986Z,5.80
2023-05-18T20:05:12.611Z,5.57
2023-05-18T20:07:41.119Z,5.13
2023-05-18T20:10:08.584Z,5.43
2023-05-18T20:12:36.094Z,5.22
2023-05-18T20:15:03.623Z,5.63
2023-05-18T20:17:31.245Z,5.15
2023-05-18T20:20:00.102Z,5.40
2023-05-18T20:22:27.625Z,5.70
2023-05-18T20:24:55.577Z,5.30
2023-05-18T20:27:23.081Z,5.45
2023-05-18T20:29:50.525Z,5.90
2023-05-18T20:32:17.987Z,5.95
2023-05-18T20:34:48.751Z,5.88
2023-05-18T20:37:16.228Z,5.70
2023-05-18T20:39:50.646Z,6.70
2023-05-18T20:42:22.004Z,7.10
2023-05-18T20:44:52.729Z,7.55
2023-05-18T20:47:20.884Z,6.72
2023-05-18T20:49:48.622Z,6.38
2023-05-18T20:52:16.665Z,6.72
2023-05-18T20:54:44.454Z,6.90
2023-05-18T20:57:11.961Z,7.07
2023-05-18T20:59:39.536Z,6.70
2023-05-18T21:02:07.667Z,6.90
2023-05-18T21:04:35.262Z,6.85
2023-05-18T21:07:02.937Z,6.60
2023-05-18T21:09:31.605Z,6.65
2023-05-18T21:11:59.246Z,6.90
2023-05-18T21:14:26.798Z,7.28
2023-05-18T21:16:54.170Z,7.03
2023-05-18T21:19:21.781Z,6.88
2023-05-18T21:21:49.250Z,7.15
2023-05-18T21:24:16.715Z,7.18
2023-05-18T21:26:44.195Z,7.22
2023-05-18T21:29:11.738Z,7.10
2023-05-18T21:31:39.237Z,7.07
2023-05-18T21:34:07.075Z,6.97
2023-05-18T21:36:34.700Z,7.47
2023-05-18T21:39:03.183Z,7.38
2023-05-18T21:41:30.917Z,6.63
2023-05-18T21:43:58.732Z,7.40
2023-05-18T21:46:26.205Z,6.78
2023-05-18T21:48:53.805Z,6.88
2023-05-18T21:51:21.292Z,6.78
2023-05-18T21:53:48.790Z,7.53
2023-05-18T21:56:16.382Z,6.82
2023-05-18T21:58:43.918Z,6.88
2023-05-18T22:01:11.421Z,7.25
2023-05-18T22:03:39.856Z,7.18
2023-05-18T22:06:07.404Z,8.10
2023-05-18T22:08:34.842Z,7.30
2023-05-18T22:11:02.286Z,7.28
2023-05-18T22:13:30.767Z,7.40
2023-05-18T22:15:58.368Z,7.53
2023-05-18T22:18:27.105Z,7.53
2023-05-18T22:20:55.098Z,7.90
2023-05-18T22:23:22.915Z,7.85
2023-05-18T22:25:50.473Z,7.70
2023-05-18T22:28:21.546Z,7.50
2023-05-18T22:30:49.577Z,7.80
2023-05-18T22:33:17.028Z,8.35
2023-05-18T22:35:44.791Z,7.57
2023-05-18T22:38:12.515Z,7.90
2023-05-18T22:40:40.038Z,7.38
2023-05-18T22:43:07.495Z,8.00
2023-05-18T22:45:35.043Z,7.50
2023-05-18T22:48:02.560Z,7.97
2023-05-18T22:50:30.298Z,7.90
2023-05-18T22:52:58.673Z,8.27
2023-05-18T22:55:26.274Z,8.48
2023-05-18T22:57:53.691Z,8.70
2023-05-18T23:00:21.124Z,8.35
2023-05-18T23:02:48.896Z,7.78
2023-05-18T23:05:17.302Z,8.25
2023-05-18T23:07:44.963Z,8.18
2023-05-18T23:10:12.882Z,7.65
2023-05-18T23:12:41.609Z,7.93
2023-05-18T23:15:09.398Z,7.30
2023-05-18T23:17:39.539Z,7.38
2023-05-18T23:20:07.656Z,7.13
2023-05-18T23:22:35.453Z,7.43
2023-05-18T23:25:04.533Z,7.70
2023-05-18T23:27:32.216Z,7.55
2023-05-18T23:29:59.626Z,7.93
2023-05-18T23:32:27.283Z,7.57
2023-05-18T23:34:56.274Z,7.53
2023-05-18T23:37:24.818Z,7.47
2023-05-18T23:39:52.813Z,7.45
2023-05-18T23:42:20.882Z,7.25
2023-05-18T23:44:48.921Z,8.02
2023-05-18T23:47:16.712Z,7.80
2023-05-18T23:49:44.714Z,7.70
2023-05-18T23:52:13.745Z,7.68
2023-05-18T23:54:41.634Z,7.80
2023-05-18T23:57:09.315Z,7.53
2023-05-18T23:59:37.133Z,7.45
